createdAt,value
2022-12-03T06:03:14.048Z,16.40
2022-12-03T06:05:41.097Z,18.48
2022-12-03T06:08:07.718Z,17.17
2022-12-03T06:10:34.965Z,18.88
2022-12-03T06:13:02.150Z,16.35
2022-12-03T06:15:29.367Z,17.05
2022-12-03T06:17:55.985Z,17.73
2022-12-03T06:20:23.115Z,17.50
2022-12-03T06:22:50.054Z,17.75
2022-12-03T06:25:17.700Z,16.52
2022-12-03T06:27:44.517Z,17.27
2022-12-03T06:30:13.118Z,15.43
2022-12-03T06:32:39.965Z,18.08
2022-12-03T06:35:07.383Z,16.92
2022-12-03T06:37:33.939Z,17.58
2022-12-03T06:40:01.265Z,15.93
2022-12-03T06:42:27.811Z,16.83
2022-12-03T06:44:54.897Z,19.27
2022-12-03T06:47:22.345Z,18.02
2022-12-03T06:49:48.921Z,17.17
2022-12-03T06:52:16.081Z,18.73
2022-12-03T06:54:42.626Z,17.50
2022-12-03T06:57:09.799Z,19.15
2022-12-03T06:59:37.487Z,20.08
2022-12-03T07:02:05.336Z,20.63
2022-12-03T07:04:31.969Z,19.45
2022-12-03T07:06:59.170Z,21.13
2022-12-03T07:09:25.815Z,20.17
2022-12-03T07:11:53.074Z,21.67
2022-12-03T07:14:19.776Z,20.75
2022-12-03T07:16:47.055Z,21.27
2022-12-03T07:19:14.134Z,19.52
2022-12-03T07:21:41.340Z,20.58
2022-12-03T07:24:08.496Z,21.17
2022-12-03T07:26:35.690Z,20.35
2022-12-03T07:29:02.236Z,20.20
2022-12-03T07:31:29.434Z,20.90
2022-12-03T07:33:56.079Z,20.60
2022-12-03T07:36:23.406Z,20.55
2022-12-03T07:38:49.971Z,20.70
2022-12-03T07:41:17.130Z,19.42
2022-12-03T07:43:45.137Z,17.75
2022-12-03T07:46:12.656Z,20.98
2022-12-03T07:48:39.228Z,22.75
2022-12-03T07:51:06.644Z,19.50
2022-12-03T07:53:33.221Z,19.38
2022-12-03T07:56:01.018Z,19.58
2022-12-03T07:58:27.537Z,21.60
2022-12-03T08:00:54.739Z,21.13
2022-12-03T08:03:21.315Z,19.40
2022-12-03T08:05:48.562Z,20.77
2022-12-03T08:08:15.190Z,20.38
2022-12-03T08:10:42.353Z,20.67
2022-12-03T08:13:15.644Z,21.55
2022-12-03T08:15:43.378Z,23.55
2022-12-03T08:18:16.941Z,22.55
2022-12-03T08:20:46.902Z,21.27
2022-12-03T08:25:47.360Z,24.23
2022-12-03T08:28:19.978Z,23.20
2022-12-03T08:31:05.213Z,22.13
2022-12-03T08:33:35.445Z,22.08
2022-12-03T08:36:29.438Z,22.80
2022-12-03T08:38:59.708Z,21.92
2022-12-03T08:42:02.654Z,22.73
2022-12-03T08:44:37.126Z,21.08
2022-12-03T08:47:09.862Z,21.17
2022-12-03T08:49:37.814Z,18.98
2022-12-03T08:52:14.999Z,19.45
2022-12-03T08:54:43.634Z,19.45
2022-12-03T08:57:28.227Z,20.13
2022-12-03T09:00:20.515Z,19.77
2022-12-03T09:02:53.112Z,19.30
2022-12-03T09:05:23.234Z,20.02
2022-12-03T09:07:49.869Z,18.83
2022-12-03T09:10:17.127Z,19.92
2022-12-03T09:12:43.659Z,21.42
2022-12-03T09:15:10.970Z,21.90
2022-12-03T09:17:37.617Z,19.17
2022-12-03T09:20:06.390Z,23.05
2022-12-03T09:22:33.026Z,20.95
2022-12-03T09:25:00.213Z,19.25
2022-12-03T09:27:26.798Z,20.75
2022-12-03T09:29:54.035Z,17.50
2022-12-03T09:32:20.863Z,18.80
2022-12-03T09:34:48.047Z,19.58
2022-12-03T09:37:14.581Z,18.08
2022-12-03T09:39:41.736Z,16.88
2022-12-03T09:42:09.485Z,20.38
2022-12-03T09:44:38.458Z,19.80
2022-12-03T09:47:05.986Z,20.90
2022-12-03T09:49:37.334Z,21.38
2022-12-03T09:52:05.942Z,22.10
2022-12-03T09:54:33.661Z,23.02
2022-12-03T09:57:03.797Z,21.05
2022-12-03T09:59:33.179Z,20.20
2022-12-03T10:04:29.536Z,18.77
2022-12-03T10:06:58.537Z,19.67
2022-12-03T10:09:28.049Z,21.05
2022-12-03T10:11:57.503Z,20.15
2022-12-03T10:14:24.331Z,19.80
2022-12-03T10:16:51.751Z,21.45
2022-12-03T10:19:31.707Z,19.10
2022-12-03T10:21:59.297Z,19.67
2022-12-03T10:24:30.691Z,23.40
2022-12-03T10:27:00.476Z,20.33
2022-12-03T10:29:33.683Z,21.30
2022-12-03T10:32:09.186Z,18.48
2022-12-03T10:34:40.554Z,19.08
2022-12-03T10:37:21.993Z,20.20
2022-12-03T10:40:10.954Z,19.27
2022-12-03T10:42:41.447Z,17.58
2022-12-03T10:45:08.442Z,22.42
2022-12-03T10:47:35.189Z,19.38
2022-12-03T10:50:06.428Z,19.92
2022-12-03T10:52:33.258Z,17.70
2022-12-03T10:55:00.452Z,16.23
2022-12-03T10:57:27.055Z,17.92
2022-12-03T10:59:54.043Z,16.52
2022-12-03T11:02:24.155Z,17.48
2022-12-03T11:04:51.834Z,16.05
2022-12-03T11:07:21.269Z,15.20
2022-12-03T11:09:51.112Z,17.70
2022-12-03T11:12:24.679Z,16.88
2022-12-03T11:14:51.646Z,16.50
2022-12-03T11:17:25.277Z,16.25
2022-12-03T11:19:52.354Z,15.57
2022-12-03T11:22:40.351Z,16.77
2022-12-03T11:25:25.230Z,14.98
2022-12-03T11:28:21.766Z,14.85
2022-12-03T11:30:51.444Z,15.73
2022-12-03T11:33:33.127Z,15.70
2022-12-03T11:36:05.870Z,14.75
2022-12-03T11:38:38.207Z,15.38
2022-12-03T11:41:18.047Z,15.88
2022-12-03T11:43:55.977Z,16.38
2022-12-03T11:46:40.739Z,15.05
2022-12-03T11:49:31.617Z,15.52
2022-12-03T11:52:01.433Z,15.38
2022-12-03T11:54:28.283Z,15.85
2022-12-03T11:56:56.376Z,15.35
2022-12-03T11:59:23.592Z,15.27
2022-12-03T12:01:50.868Z,14.77
2022-12-03T12:04:30.910Z,15.65
2022-12-03T12:06:58.140Z,15.80
2022-12-03T12:09:54.073Z,17.70
2022-12-03T12:12:39.230Z,17.35
2022-12-03T12:15:35.115Z,16.50
2022-12-03T12:18:33.828Z,17.02
2022-12-03T12:21:37.941Z,17.85
2022-12-03T12:24:29.389Z,16.48
2022-12-03T12:27:02.698Z,18.95
2022-12-03T12:29:29.271Z,16.70
2022-12-03T12:32:13.647Z,18.73
2022-12-03T12:34:45.560Z,18.60
2022-12-03T12:37:22.378Z,17.92
2022-12-03T12:39:53.721Z,19.85
2022-12-03T12:42:38.282Z,19.40
2022-12-03T12:45:07.663Z,17.45
2022-12-03T12:47:36.438Z,19.50
2022-12-03T12:50:10.515Z,20.30
2022-12-03T12:52:51.487Z,18.38
2022-12-03T12:55:18.584Z,20.08
2022-12-03T12:57:46.022Z,19.30
2022-12-03T13:00:22.629Z,17.90
2022-12-03T13:03:01.529Z,18.17
2022-12-03T13:05:46.082Z,18.63
2022-12-03T13:08:22.485Z,18.05
2022-12-03T13:10:51.359Z,18.02
2022-12-03T13:13:24.699Z,19.58
2022-12-03T13:16:19.077Z,18.40
2022-12-03T13:18:53.700Z,18.40
2022-12-03T13:21:23.956Z,20.20
2022-12-03T13:23:57.471Z,19.38
2022-12-03T13:26:39.441Z,20.10
2022-12-03T13:29:18.330Z,18.38
2022-12-03T13:31:52.765Z,18.42
2022-12-03T13:34:27.948Z,18.65
2022-12-03T13:36:58.470Z,19.83
2022-12-03T13:39:32.675Z,20.63
2022-12-03T13:42:34.918Z,21.55
2022-12-03T13:45:05.169Z,17.90
2022-12-03T13:47:32.326Z,21.20
2022-12-03T13:50:04.889Z,20.92
2022-12-03T13:52:34.863Z,19.85
2022-12-03T13:57:29.365Z,21.58
2022-12-03T13:59:56.280Z,21.60
2022-12-03T14:02:23.818Z,21.48
2022-12-03T14:04:54.085Z,20.77
2022-12-03T14:07:24.083Z,24.20
2022-12-03T14:09:50.627Z,22.67
2022-12-03T14:12:26.889Z,26.02
2022-12-03T14:14:53.936Z,23.90
2022-12-03T14:17:20.851Z,26.20
2022-12-03T14:19:47.965Z,23.75
2022-12-03T14:22:14.538Z,26.63
2022-12-03T14:24:41.384Z,25.35
2022-12-03T14:27:07.955Z,27.02
2022-12-03T14:29:35.148Z,26.60
2022-12-03T14:32:02.008Z,25.77
2022-12-03T14:34:29.273Z,25.75
2022-12-03T14:36:55.848Z,25.42
2022-12-03T14:39:23.066Z,25.42
2022-12-03T14:42:08.650Z,23.88
2022-12-03T14:44:35.998Z,27.42
2022-12-03T14:47:02.607Z,25.30
2022-12-03T14:49:29.937Z,25.38
2022-12-03T14:51:56.554Z,25.00
2022-12-03T14:54:23.826Z,25.45
2022-12-03T14:56:50.651Z,24.27
2022-12-03T14:59:20.721Z,24.30
2022-12-03T15:01:51.411Z,25.55
2022-12-03T15:04:18.652Z,25.98
2022-12-03T15:06:45.270Z,24.77
2022-12-03T15:09:12.849Z,26.67
2022-12-03T15:11:44.621Z,27.17
2022-12-03T15:14:13.668Z,26.45
2022-12-03T15:16:40.359Z,26.73
2022-12-03T15:19:07.275Z,25.75
2022-12-03T15:21:34.881Z,27.50
2022-12-03T15:24:02.758Z,25.33
2022-12-03T15:26:30.095Z,26.27
2022-12-03T15:28:56.997Z,27.48
2022-12-03T15:31:23.603Z,27.35
2022-12-03T15:33:50.882Z,27.45
2022-12-03T15:36:17.635Z,26.33
2022-12-03T15:38:44.991Z,26.27
2022-12-03T15:41:28.769Z,27.75
2022-12-03T15:44:04.405Z,26.40
2022-12-03T15:46:33.804Z,27.98
2022-12-03T15:49:01.146Z,27.70
2022-12-03T15:51:27.770Z,28.85
2022-12-03T15:53:54.939Z,29.40
2022-12-03T15:56:21.502Z,27.80
2022-12-03T15:58:48.668Z,27.58
2022-12-03T16:01:15.285Z,24.02
2022-12-03T16:03:42.566Z,25.38
2022-12-03T16:06:09.326Z,25.05
2022-12-03T16:08:36.454Z,28.58
2022-12-03T16:11:03.672Z,28.55
2022-12-03T16:13:31.317Z,26.23
2022-12-03T16:15:57.967Z,26.88
2022-12-03T16:18:25.229Z,26.63
2022-12-03T16:20:52.182Z,27.08
2022-12-03T16:23:19.397Z,29.27
2022-12-03T16:25:45.996Z,26.85
2022-12-03T16:28:13.220Z,27.48
2022-12-03T16:30:39.877Z,30.50
2022-12-03T16:33:07.028Z,29.50
2022-12-03T16:35:33.597Z,28.55
2022-12-03T16:38:00.773Z,29.48
2022-12-03T16:40:27.316Z,28.52
2022-12-03T16:42:56.661Z,29.75
2022-12-03T16:45:40.647Z,29.88
2022-12-03T16:48:07.758Z,27.52
2022-12-03T16:50:37.404Z,27.30
2022-12-03T16:53:04.582Z,31.13
2022-12-03T16:55:31.109Z,30.90
2022-12-03T16:57:58.258Z,28.98
2022-12-03T17:00:25.879Z,28.83
2022-12-03T17:02:53.103Z,31.75
2022-12-03T17:05:19.726Z,31.25
2022-12-03T17:07:46.964Z,27.85
2022-12-03T17:10:13.749Z,30.13
2022-12-03T17:13:08.274Z,32.33
2022-12-03T17:15:27.976Z,31.10
2022-12-03T17:17:55.265Z,32.38
2022-12-03T17:20:21.923Z,30.17
2022-12-03T17:22:49.069Z,29.17
2022-12-03T17:25:16.069Z,32.95
2022-12-03T17:27:45.481Z,30.92
2022-12-03T17:30:13.213Z,27.75
2022-12-03T17:32:40.678Z,30.35
2022-12-03T17:35:08.159Z,29.90
2022-12-03T17:37:35.761Z,30.48
2022-12-03T17:40:04.347Z,28.42
2022-12-03T17:42:31.502Z,29.55
2022-12-03T17:44:58.048Z,27.63
2022-12-03T17:47:25.226Z,28.08
2022-12-03T17:49:52.262Z,29.60
2022-12-03T17:52:19.647Z,28.58
2022-12-03T17:57:33.356Z,27.63
2022-12-03T18:00:03.368Z,27.95
2022-12-03T18:02:39.019Z,31.20
2022-12-03T18:05:06.392Z,29.25
2022-12-03T18:07:33.762Z,28.90
2022-12-03T18:10:00.418Z,28.80
2022-12-03T18:12:27.658Z,28.30
2022-12-03T18:14:54.196Z,27.38
2022-12-03T18:17:21.374Z,28.25
2022-12-03T18:19:48.014Z,29.55
2022-12-03T18:22:15.345Z,28.45
2022-12-03T18:24:44.893Z,30.45
2022-12-03T18:27:12.266Z,28.95
2022-12-03T18:29:38.807Z,29.40
2022-12-03T18:32:27.214Z,30.60
2022-12-03T18:34:55.198Z,31.52
2022-12-03T18:37:25.134Z,30.05
2022-12-03T18:42:21.238Z,31.58
2022-12-03T18:44:50.097Z,32.97
2022-12-03T18:47:23.515Z,29.77
2022-12-03T18:49:50.811Z,30.23
2022-12-03T18:52:21.022Z,34.38
2022-12-03T18:54:48.386Z,33.40
2022-12-03T18:57:15.869Z,31.05
2022-12-03T18:59:42.643Z,32.33
2022-12-03T19:02:54.307Z,30.80
2022-12-03T19:05:07.268Z,29.13
2022-12-03T19:07:33.889Z,29.70
2022-12-03T19:10:00.756Z,33.10
2022-12-03T19:12:27.976Z,31.25
2022-12-03T19:14:54.520Z,31.40
2022-12-03T19:17:21.945Z,33.30
2022-12-03T19:19:48.553Z,32.95
2022-12-03T19:22:15.703Z,32.30
2022-12-03T19:24:42.274Z,34.40
2022-12-03T19:27:09.943Z,32.50
2022-12-03T19:29:36.470Z,33.65
2022-12-03T19:32:04.028Z,32.58
2022-12-03T19:34:30.697Z,31.45
2022-12-03T19:36:57.843Z,31.38
2022-12-03T19:39:24.757Z,34.53
2022-12-03T19:41:51.891Z,32.95
2022-12-03T19:44:19.158Z,34.00
2022-12-03T19:46:46.323Z,31.45
2022-12-03T19:49:12.909Z,36.15
2022-12-03T19:51:40.122Z,32.42
2022-12-03T19:54:07.884Z,32.83
2022-12-03T19:56:35.244Z,32.05
2022-12-03T19:59:02.218Z,31.42
2022-12-03T20:01:32.121Z,30.70
2022-12-03T20:06:29.795Z,33.95
2022-12-03T20:08:58.211Z,32.60
2022-12-03T20:11:28.555Z,31.73
2022-12-03T20:13:57.457Z,29.42
2022-12-03T20:16:25.947Z,34.25
2022-12-03T20:18:57.116Z,31.00
2022-12-03T20:21:24.338Z,33.67
2022-12-03T20:23:50.919Z,30.33
2022-12-03T20:26:20.383Z,33.70
2022-12-03T20:28:50.538Z,31.38
2022-12-03T20:31:20.848Z,30.40
2022-12-03T20:33:50.360Z,32.85
2022-12-03T20:36:19.425Z,30.02
2022-12-03T20:38:46.595Z,31.85
2022-12-03T20:41:16.259Z,30.08
2022-12-03T20:46:15.784Z,32.35
2022-12-03T20:48:43.976Z,31.50
2022-12-03T20:51:13.824Z,32.15
2022-12-03T20:53:41.187Z,33.05
2022-12-03T20:56:09.749Z,31.48
2022-12-03T20:58:36.730Z,31.95
2022-12-03T21:01:26.926Z,30.70
2022-12-03T21:03:55.619Z,33.97
2022-12-03T21:06:25.695Z,29.63
2022-12-03T21:11:23.163Z,31.60
2022-12-03T21:13:50.510Z,32.33
2022-12-03T21:16:34.108Z,32.78
2022-12-03T21:19:07.408Z,32.45
2022-12-03T21:21:35.348Z,29.65
2022-12-03T21:24:02.265Z,33.25
2022-12-03T21:26:29.486Z,34.42
2022-12-03T21:28:56.134Z,31.42
